Airfield :
LOGIN :

Register | Disclaimer

   EN    FR    IT 

 










Legend :    VFR   Marginal VFR   IFR   Intensive IFR   Very Intensive IFR
Visi :
Ceiling :
>= 8 km
>= 3000ft
5 to 8 km
1000 to 3000 ft
1500m to 5 km
500 to 1000 ft
800 to 1500m
200 to 500 ft
< 800m
< 200 ft
Symbols :   Thunderstorms  Fog  Heavy snow  Heavy precipitations  Wind > 20 kt
SIGMETs :     Misc.  Thunderstorms  Icing  Turbulence  Mountain Waves  Volcanic Ashes






- Airport Elevation : 39 ft
- IATA code : SUF


LICA - Lamezia Terme

CURRENT METAR :
  • 060020Z AUTO 33007KT 9999 NCD 04/M07 Q1026

EXPIRED METARs :
  • 052320Z AUTO 30008KT 270V340 9999 NCD 04/M07 Q1026
  • 052250Z AUTO 30007KT 9999 NCD 04/M07 Q1026
  • 052220Z AUTO 31010KT 290V360 9999 NCD 05/M08 Q1025

TAF TAF LICA
Valid from the 06 at 00:00 until the 07 at 00:00 UTC


052300Z 0600/0624 35013KT 9999 FEW060
BECMG 0616/0618 08012KT



MET'MAP, your aeronautical weather chart ! - Copyright ORBIFLY December 2007 - Disclaimer

ORBIFLY MET'MAP TEAM :

Programming & Development : Alexandra Zaïnal
Original concept : Baudouin d'Aumeries
Technical & hardware support : Manuel Goepfert
Assistance : Marc-Olivier Méhu




SOURCES & CREDITS :

   NOAA